createdAt,value
2022-09-06T00:00:51.311Z,14.85
2022-09-06T00:01:51.273Z,14.84
2022-09-06T00:02:51.322Z,14.85
2022-09-06T00:03:51.307Z,14.85
2022-09-06T00:04:51.334Z,14.85
2022-09-06T00:05:51.257Z,14.84
2022-09-06T00:06:51.950Z,14.81
2022-09-06T00:07:51.245Z,14.79
2022-09-06T00:08:51.258Z,14.76
2022-09-06T00:09:51.178Z,14.74
2022-09-06T00:10:51.186Z,14.73
2022-09-06T00:11:51.173Z,14.75
2022-09-06T00:12:52.452Z,14.75
2022-09-06T00:13:51.132Z,14.74
2022-09-06T00:14:51.115Z,14.73
2022-09-06T00:15:51.204Z,14.72
2022-09-06T00:16:51.083Z,14.73
2022-09-06T00:17:51.101Z,14.74
2022-09-06T00:18:51.065Z,14.73
2022-09-06T00:19:51.050Z,14.71
2022-09-06T00:20:51.067Z,14.69
2022-09-06T00:21:51.015Z,14.66
2022-09-06T00:22:51.000Z,14.63
2022-09-06T00:23:50.983Z,14.59
2022-09-06T00:24:51.047Z,14.58
2022-09-06T00:25:50.979Z,14.58
2022-09-06T00:26:50.958Z,14.58
2022-09-06T00:27:50.934Z,14.58
2022-09-06T00:28:50.949Z,14.58
2022-09-06T00:29:50.925Z,14.58
2022-09-06T00:30:50.971Z,14.57
2022-09-06T00:31:50.892Z,14.55
2022-09-06T00:32:50.891Z,14.52
2022-09-06T00:33:50.869Z,14.49
2022-09-06T00:34:50.868Z,14.46
2022-09-06T00:35:50.841Z,14.43
2022-09-06T00:36:50.819Z,14.40
2022-09-06T00:37:50.822Z,14.39
2022-09-06T00:38:50.806Z,14.40
2022-09-06T00:39:50.837Z,14.39
2022-09-06T00:40:50.799Z,14.38
2022-09-06T00:41:50.746Z,14.38
2022-09-06T00:42:50.759Z,14.40
2022-09-06T00:43:50.734Z,14.41
2022-09-06T00:44:50.715Z,14.42
2022-09-06T00:45:50.742Z,14.42
2022-09-06T00:46:50.764Z,14.41
2022-09-06T00:47:51.878Z,14.40
2022-09-06T00:48:50.674Z,14.39
2022-09-06T00:49:50.669Z,14.37
2022-09-06T00:50:50.674Z,14.35
2022-09-06T00:51:50.633Z,14.32
2022-09-06T00:52:50.659Z,14.29
2022-09-06T00:53:50.617Z,14.25
2022-09-06T00:54:50.593Z,14.24
2022-09-06T00:55:50.573Z,14.23
2022-09-06T00:56:50.562Z,14.22
2022-09-06T00:57:50.560Z,14.21
2022-09-06T00:58:50.528Z,14.21
2022-09-06T00:59:50.516Z,14.21
2022-09-06T01:00:50.494Z,14.20
2022-09-06T01:01:50.626Z,14.18
2022-09-06T01:02:50.550Z,14.18
2022-09-06T01:03:50.474Z,14.18
2022-09-06T01:04:50.453Z,14.20
2022-09-06T01:05:54.282Z,14.22
2022-09-06T01:06:50.447Z,14.22
2022-09-06T01:07:50.410Z,14.21
2022-09-06T01:08:50.404Z,14.20
2022-09-06T01:09:50.384Z,14.19
2022-09-06T01:10:50.375Z,14.17
2022-09-06T01:11:50.369Z,14.16
2022-09-06T01:12:50.356Z,14.13
2022-09-06T01:13:50.327Z,14.11
2022-09-06T01:14:50.333Z,14.09
2022-09-06T01:15:50.673Z,14.07
2022-09-06T01:16:50.327Z,14.05
2022-09-06T01:17:50.266Z,14.01
2022-09-06T01:18:50.260Z,13.98
2022-09-06T01:19:50.275Z,13.96
2022-09-06T01:20:50.239Z,13.92
2022-09-06T01:21:50.295Z,13.88
2022-09-06T01:22:50.226Z,13.84
2022-09-06T01:23:50.189Z,13.80
2022-09-06T01:24:50.203Z,13.77
2022-09-06T01:25:50.181Z,13.74
2022-09-06T01:26:50.171Z,13.73
2022-09-06T01:27:50.159Z,13.71
2022-09-06T01:28:50.129Z,13.71
2022-09-06T01:29:50.168Z,13.71
2022-09-06T01:30:50.154Z,13.71
2022-09-06T01:31:50.082Z,13.70
2022-09-06T01:32:50.079Z,13.71
2022-09-06T01:33:50.072Z,13.70
2022-09-06T01:34:50.034Z,13.68
2022-09-06T01:35:50.032Z,13.66
2022-09-06T01:37:09.004Z,13.66
2022-09-06T01:37:49.998Z,13.67
2022-09-06T01:38:50.006Z,13.67
2022-09-06T01:39:50.070Z,13.67
2022-09-06T01:40:49.983Z,13.68
2022-09-06T01:41:49.980Z,13.69
2022-09-06T01:42:51.942Z,13.72
2022-09-06T01:43:49.908Z,13.77
2022-09-06T01:44:49.933Z,13.80
2022-09-06T01:45:49.924Z,13.81
2022-09-06T01:46:49.878Z,13.81
2022-09-06T01:47:49.890Z,13.80
2022-09-06T01:48:49.871Z,13.79
2022-09-06T01:49:49.849Z,13.78
2022-09-06T01:50:49.823Z,13.77
2022-09-06T01:51:49.827Z,13.75
2022-09-06T01:52:49.812Z,13.72
2022-09-06T01:53:49.797Z,13.70
2022-09-06T01:54:49.790Z,13.68
2022-09-06T01:55:49.746Z,13.66
2022-09-06T01:56:49.767Z,13.64
2022-09-06T01:57:49.737Z,13.64
2022-09-06T01:58:49.788Z,13.64
2022-09-06T01:59:49.694Z,13.64
2022-09-06T02:00:49.690Z,13.64
2022-09-06T02:01:49.735Z,13.65
2022-09-06T02:02:49.775Z,13.65
2022-09-06T02:03:49.688Z,13.65
2022-09-06T02:04:49.663Z,13.67
2022-09-06T02:05:49.654Z,13.69
2022-09-06T02:06:49.610Z,13.70
2022-09-06T02:07:49.587Z,13.71
2022-09-06T02:08:49.583Z,13.71
2022-09-06T02:09:49.562Z,13.71
2022-09-06T02:10:49.585Z,13.72
2022-09-06T02:11:49.581Z,13.73
2022-09-06T02:12:49.521Z,13.73
2022-09-06T02:13:49.511Z,13.72
2022-09-06T02:14:49.494Z,13.71
2022-09-06T02:15:49.503Z,13.69
2022-09-06T02:16:49.999Z,13.67
2022-09-06T02:17:49.482Z,13.65
2022-09-06T02:18:49.484Z,13.65
2022-09-06T02:19:49.448Z,13.67
2022-09-06T02:20:49.450Z,13.70
2022-09-06T02:21:49.409Z,13.72
2022-09-06T02:22:52.021Z,13.73
2022-09-06T02:23:49.391Z,13.73
2022-09-06T02:24:49.403Z,13.72
2022-09-06T02:25:49.371Z,13.71
2022-09-06T02:26:49.360Z,13.69
2022-09-06T02:27:49.368Z,13.67
2022-09-06T02:28:49.318Z,13.66
2022-09-06T02:29:49.572Z,13.65
2022-09-06T02:30:49.347Z,13.64
2022-09-06T02:31:49.317Z,13.65
2022-09-06T02:32:49.262Z,13.65
2022-09-06T02:33:49.237Z,13.64
2022-09-06T02:34:49.251Z,13.63
2022-09-06T02:35:49.234Z,13.63
2022-09-06T02:36:49.215Z,13.63
2022-09-06T02:37:49.240Z,13.63
2022-09-06T02:38:49.197Z,13.63
2022-09-06T02:39:49.231Z,13.63
2022-09-06T02:40:49.176Z,13.64
2022-09-06T02:41:49.148Z,13.64
2022-09-06T02:42:49.151Z,13.65
2022-09-06T02:43:49.118Z,13.65
2022-09-06T02:44:49.117Z,13.66
2022-09-06T02:45:49.141Z,13.67
2022-09-06T02:46:49.082Z,13.68
2022-09-06T02:47:49.080Z,13.69
2022-09-06T02:48:49.085Z,13.68
2022-09-06T02:49:49.039Z,13.67
2022-09-06T02:50:49.034Z,13.66
2022-09-06T02:51:49.016Z,13.65
2022-09-06T02:52:49.022Z,13.63
2022-09-06T02:53:49.030Z,13.61
2022-09-06T02:54:48.987Z,13.60
2022-09-06T02:55:48.954Z,13.60
2022-09-06T02:56:52.254Z,13.61
2022-09-06T02:57:52.120Z,13.62
2022-09-06T02:58:48.933Z,13.63
2022-09-06T02:59:48.903Z,13.63
2022-09-06T03:00:48.959Z,13.63
2022-09-06T03:01:48.875Z,13.62
2022-09-06T03:02:48.935Z,13.61
2022-09-06T03:03:48.902Z,13.59
2022-09-06T03:04:48.826Z,13.57
2022-09-06T03:05:48.804Z,13.56
2022-09-06T03:06:48.812Z,13.56
2022-09-06T03:07:48.782Z,13.55
2022-09-06T03:08:48.788Z,13.54
2022-09-06T03:09:48.764Z,13.52
2022-09-06T03:10:48.798Z,13.51
2022-09-06T03:11:48.767Z,13.50
2022-09-06T03:12:48.719Z,13.48
2022-09-06T03:13:48.714Z,13.47
2022-09-06T03:14:53.013Z,13.47
2022-09-06T03:15:48.698Z,13.47
2022-09-06T03:16:48.738Z,13.46
2022-09-06T03:17:48.672Z,13.45
2022-09-06T03:18:48.625Z,13.45
2022-09-06T03:19:48.631Z,13.46
2022-09-06T03:20:48.642Z,13.46
2022-09-06T03:21:48.642Z,13.45
2022-09-06T03:22:48.593Z,13.44
2022-09-06T03:23:48.613Z,13.44
2022-09-06T03:24:48.592Z,13.44
2022-09-06T03:25:48.563Z,13.44
2022-09-06T03:26:48.540Z,13.44
2022-09-06T03:27:48.603Z,13.43
2022-09-06T03:28:48.533Z,13.41
2022-09-06T03:29:48.527Z,13.38
2022-09-06T03:30:48.513Z,13.36
2022-09-06T03:31:48.721Z,13.33
2022-09-06T03:32:48.432Z,13.31
2022-09-06T03:33:48.472Z,13.30
2022-09-06T03:34:48.425Z,13.29
2022-09-06T03:35:48.433Z,13.28
2022-09-06T03:36:48.412Z,13.27
2022-09-06T03:37:48.410Z,13.25
2022-09-06T03:38:48.398Z,13.24
2022-09-06T03:39:48.431Z,13.24
2022-09-06T03:40:48.335Z,13.23
2022-09-06T03:41:48.348Z,13.21
2022-09-06T03:42:51.727Z,13.20
2022-09-06T03:43:48.325Z,13.20
2022-09-06T03:44:48.292Z,13.18
2022-09-06T03:45:48.330Z,13.17
2022-09-06T03:46:48.256Z,13.15
2022-09-06T03:47:48.254Z,13.13
2022-09-06T03:48:48.248Z,13.11
2022-09-06T03:49:48.267Z,13.09
2022-09-06T03:50:48.199Z,13.06
2022-09-06T03:51:48.210Z,13.03
2022-09-06T03:52:48.191Z,13.00
2022-09-06T03:53:48.230Z,12.98
2022-09-06T03:54:48.138Z,12.95
2022-09-06T03:55:48.166Z,12.92
2022-09-06T03:56:48.175Z,12.90
2022-09-06T03:57:48.145Z,12.88
2022-09-06T03:58:48.105Z,12.85
2022-09-06T03:59:48.103Z,12.86
2022-09-06T04:00:48.153Z,12.87
2022-09-06T04:01:48.077Z,12.89
2022-09-06T04:02:48.141Z,12.90
2022-09-06T04:03:48.050Z,12.89
2022-09-06T04:04:48.011Z,12.88
2022-09-06T04:05:48.093Z,12.87
2022-09-06T04:06:47.972Z,12.86
2022-09-06T04:07:47.982Z,12.85
2022-09-06T04:08:47.956Z,12.86
2022-09-06T04:09:47.952Z,12.87
2022-09-06T04:10:47.946Z,12.87
2022-09-06T04:11:47.918Z,12.87
2022-09-06T04:12:47.928Z,12.88
2022-09-06T04:13:47.896Z,12.87
2022-09-06T04:14:47.914Z,12.86
2022-09-06T04:15:47.883Z,12.84
2022-09-06T04:16:48.090Z,12.82
2022-09-06T04:17:51.761Z,12.79
2022-09-06T04:18:47.829Z,12.78
2022-09-06T04:19:47.829Z,12.76
2022-09-06T04:20:47.806Z,12.75
2022-09-06T04:21:47.837Z,12.74
2022-09-06T04:22:47.781Z,12.74
2022-09-06T04:23:47.748Z,12.73
2022-09-06T04:24:47.752Z,12.72
2022-09-06T04:25:47.730Z,12.70
2022-09-06T04:26:47.726Z,12.67
2022-09-06T04:27:47.749Z,12.65
2022-09-06T04:28:47.693Z,12.63
2022-09-06T04:29:47.709Z,12.62
2022-09-06T04:30:47.678Z,12.61
2022-09-06T04:31:47.742Z,12.59
2022-09-06T04:32:47.682Z,12.59
2022-09-06T04:33:47.648Z,12.59
2022-09-06T04:34:47.669Z,12.60
2022-09-06T04:35:47.618Z,12.61
2022-09-06T04:36:48.468Z,12.61
2022-09-06T04:37:47.589Z,12.59
2022-09-06T04:38:47.559Z,12.58
2022-09-06T04:39:47.633Z,12.57
2022-09-06T04:40:47.545Z,12.57
2022-09-06T04:41:47.526Z,12.55
2022-09-06T04:42:47.506Z,12.53
2022-09-06T04:43:47.550Z,12.50
2022-09-06T04:44:47.466Z,12.48
2022-09-06T04:45:47.512Z,12.48
2022-09-06T04:46:47.451Z,12.51
2022-09-06T04:47:47.472Z,12.54
2022-09-06T04:48:47.422Z,12.55
2022-09-06T04:49:47.458Z,12.56
2022-09-06T04:50:47.408Z,12.57
2022-09-06T04:51:47.394Z,12.59
2022-09-06T04:52:47.357Z,12.60
2022-09-06T04:53:47.410Z,12.60
2022-09-06T04:54:47.334Z,12.61
2022-09-06T04:55:47.329Z,12.62
2022-09-06T04:56:47.336Z,12.63
2022-09-06T04:57:51.681Z,12.63
2022-09-06T04:58:47.293Z,12.64
2022-09-06T04:59:47.296Z,12.65
2022-09-06T05:00:47.318Z,12.65
2022-09-06T05:01:47.270Z,12.66
2022-09-06T05:02:47.219Z,12.68
2022-09-06T05:03:47.240Z,12.71
2022-09-06T05:04:47.206Z,12.75
2022-09-06T05:05:47.200Z,12.79
2022-09-06T05:06:47.188Z,12.81
2022-09-06T05:07:47.174Z,12.82
2022-09-06T05:08:47.168Z,12.84
2022-09-06T05:09:47.186Z,12.86
2022-09-06T05:10:47.140Z,12.88
2022-09-06T05:11:47.099Z,12.90
2022-09-06T05:12:47.091Z,12.92
2022-09-06T05:13:47.079Z,12.92
2022-09-06T05:14:47.071Z,12.92
2022-09-06T05:15:47.083Z,12.91
2022-09-06T05:16:47.107Z,12.91
2022-09-06T05:17:47.070Z,12.91
2022-09-06T05:18:47.034Z,12.91
2022-09-06T05:19:46.996Z,12.92
2022-09-06T05:20:46.994Z,12.92
2022-09-06T05:21:46.988Z,12.93
2022-09-06T05:22:47.015Z,12.94
2022-09-06T05:23:46.966Z,12.95
2022-09-06T05:24:46.940Z,12.95
2022-09-06T05:25:46.958Z,12.95
2022-09-06T05:26:46.962Z,12.96
2022-09-06T05:27:46.906Z,12.98
2022-09-06T05:28:46.925Z,12.99
2022-09-06T05:29:46.861Z,13.01
2022-09-06T05:30:46.839Z,13.03
2022-09-06T05:31:47.193Z,13.06
2022-09-06T05:32:51.712Z,13.09
2022-09-06T05:33:46.824Z,13.12
2022-09-06T05:34:46.842Z,13.15
2022-09-06T05:35:46.792Z,13.18
2022-09-06T05:36:46.785Z,13.19
2022-09-06T05:37:46.780Z,13.22
2022-09-06T05:38:46.743Z,13.24
2022-09-06T05:39:46.842Z,13.27
2022-09-06T05:40:46.713Z,13.28
2022-09-06T05:41:46.727Z,13.30
2022-09-06T05:42:46.690Z,13.32
2022-09-06T05:43:46.703Z,13.34
2022-09-06T05:44:46.657Z,13.37
2022-09-06T05:45:46.736Z,13.39
2022-09-06T05:46:46.635Z,13.42
2022-09-06T05:47:46.674Z,13.45
2022-09-06T05:48:46.635Z,13.47
2022-09-06T05:49:46.603Z,13.49
2022-09-06T05:50:46.603Z,13.52
2022-09-06T05:51:46.588Z,13.56
2022-09-06T05:52:46.555Z,13.60
2022-09-06T05:53:46.573Z,13.63
2022-09-06T05:54:46.574Z,13.67
2022-09-06T05:55:46.518Z,13.70
2022-09-06T05:56:46.516Z,13.72
2022-09-06T05:57:46.526Z,13.74
2022-09-06T05:58:46.471Z,13.75
2022-09-06T05:59:46.463Z,13.77
2022-09-06T06:00:46.500Z,13.78
2022-09-06T06:01:46.621Z,13.78
2022-09-06T06:02:46.494Z,13.79
2022-09-06T06:03:46.414Z,13.80
2022-09-06T06:04:46.419Z,13.82
2022-09-06T06:05:46.383Z,13.85
2022-09-06T06:06:46.631Z,13.89
2022-09-06T06:07:46.362Z,13.93
2022-09-06T06:08:46.393Z,13.97
2022-09-06T06:09:46.350Z,13.99
2022-09-06T06:10:46.339Z,14.00
2022-09-06T06:11:46.349Z,14.00
2022-09-06T06:12:52.254Z,14.00
2022-09-06T06:13:46.315Z,14.02
2022-09-06T06:14:46.267Z,14.05
2022-09-06T06:15:46.262Z,14.08
2022-09-06T06:16:46.298Z,14.12
2022-09-06T06:17:46.257Z,14.15
2022-09-06T06:18:50.085Z,14.18
2022-09-06T06:19:46.210Z,14.20
2022-09-06T06:20:46.188Z,14.19
2022-09-06T06:21:46.177Z,14.19
2022-09-06T06:22:46.195Z,14.20
2022-09-06T06:23:46.146Z,14.22
2022-09-06T06:24:46.135Z,14.25
2022-09-06T06:25:46.157Z,14.28
2022-09-06T06:26:46.120Z,14.32
2022-09-06T06:27:46.095Z,14.36
2022-09-06T06:28:46.134Z,14.40
2022-09-06T06:29:46.090Z,14.46
2022-09-06T06:30:46.071Z,14.51
2022-09-06T06:31:46.118Z,14.55
2022-09-06T06:32:46.051Z,14.59
2022-09-06T06:33:46.033Z,14.64
2022-09-06T06:34:46.014Z,14.68
2022-09-06T06:35:45.995Z,14.70
2022-09-06T06:36:45.966Z,14.69
2022-09-06T06:37:45.963Z,14.66
2022-09-06T06:38:45.960Z,14.65
2022-09-06T06:39:46.029Z,14.65
2022-09-06T06:40:45.913Z,14.68
2022-09-06T06:41:45.932Z,14.71
2022-09-06T06:42:45.977Z,14.75
2022-09-06T06:43:45.875Z,14.79
2022-09-06T06:44:45.879Z,14.82
2022-09-06T06:45:45.937Z,14.86
2022-09-06T06:46:46.099Z,14.90
2022-09-06T06:48:00.397Z,14.95
2022-09-06T06:48:45.820Z,14.99
2022-09-06T06:49:45.820Z,15.04
2022-09-06T06:50:45.793Z,15.08
2022-09-06T06:51:45.792Z,15.12
2022-09-06T06:52:45.761Z,15.15
2022-09-06T06:53:45.754Z,15.19
2022-09-06T06:54:45.721Z,15.24
2022-09-06T06:55:45.764Z,15.29
2022-09-06T06:56:45.744Z,15.34
2022-09-06T06:57:45.699Z,15.38
2022-09-06T06:58:45.716Z,15.41
2022-09-06T06:59:45.666Z,15.47
2022-09-06T07:00:45.725Z,15.51
2022-09-06T07:01:45.737Z,15.53
2022-09-06T07:02:45.642Z,15.57
2022-09-06T07:03:45.628Z,15.61
2022-09-06T07:04:45.586Z,15.61
2022-09-06T07:07:45.587Z,15.55
2022-09-06T07:08:45.603Z,15.58
2022-09-06T07:10:45.528Z,15.67
2022-09-06T07:11:45.596Z,15.70
2022-09-06T07:12:45.535Z,15.70
2022-09-06T07:13:45.528Z,15.72
2022-09-06T07:14:45.879Z,15.75
2022-09-06T07:15:45.575Z,15.79
2022-09-06T07:16:45.590Z,15.83
2022-09-06T07:17:45.445Z,15.87
2022-09-06T07:18:45.499Z,15.90
2022-09-06T07:21:45.629Z,16.06
2022-09-06T07:22:45.358Z,16.10
2022-09-06T07:24:45.385Z,16.13
2022-09-06T07:25:45.299Z,16.11
2022-09-06T07:27:49.301Z,16.12
2022-09-06T07:28:45.291Z,16.17
2022-09-06T07:29:45.255Z,16.22
2022-09-06T07:30:45.282Z,16.28
2022-09-06T07:32:45.215Z,16.41
2022-09-06T07:33:45.196Z,16.44
2022-09-06T07:34:45.213Z,16.48
2022-09-06T07:35:45.165Z,16.54
2022-09-06T07:36:45.175Z,16.59
2022-09-06T07:37:45.230Z,16.60
2022-09-06T07:38:45.136Z,16.59
2022-09-06T07:39:45.180Z,16.59
2022-09-06T07:40:45.129Z,16.61
2022-09-06T07:41:45.104Z,16.64
2022-09-06T07:42:45.283Z,16.65
2022-09-06T07:43:45.065Z,16.66
2022-09-06T07:44:45.081Z,16.70
2022-09-06T07:45:45.072Z,16.77
2022-09-06T07:46:45.210Z,16.81
2022-09-06T07:48:00.342Z,16.87
2022-09-06T07:48:45.025Z,16.94
2022-09-06T07:50:49.164Z,17.10
2022-09-06T07:51:45.009Z,17.20
2022-09-06T07:53:44.984Z,17.34
2022-09-06T07:54:44.950Z,17.33
2022-09-06T07:55:44.924Z,17.32
2022-09-06T07:56:44.905Z,17.34
2022-09-06T07:57:44.915Z,17.35
2022-09-06T07:58:44.891Z,17.36
2022-09-06T07:59:44.871Z,17.34
2022-09-06T08:00:44.862Z,17.27
2022-09-06T08:01:44.865Z,17.19
2022-09-06T08:02:44.830Z,17.09
2022-09-06T08:03:44.860Z,17.05
2022-09-06T08:04:47.617Z,17.10
2022-09-06T08:07:44.766Z,17.22
2022-09-06T08:09:00.325Z,17.29
2022-09-06T08:09:44.731Z,17.34
2022-09-06T08:10:44.723Z,17.34
2022-09-06T08:11:44.703Z,17.42
2022-09-06T08:12:44.741Z,17.60
2022-09-06T08:13:44.660Z,17.80
2022-09-06T08:14:44.652Z,18.00
2022-09-06T08:15:44.654Z,18.18
2022-09-06T08:16:44.845Z,18.35
2022-09-06T08:17:44.602Z,18.45
2022-09-06T08:18:44.729Z,18.39
2022-09-06T08:19:44.602Z,18.28
2022-09-06T08:20:44.573Z,18.16
2022-09-06T08:21:44.597Z,18.04
2022-09-06T08:22:44.554Z,18.02
2022-09-06T08:23:44.565Z,18.07
2022-09-06T08:24:44.533Z,18.10
2022-09-06T08:25:44.521Z,18.10
2022-09-06T08:26:44.519Z,18.11
2022-09-06T08:27:44.474Z,18.13
2022-09-06T08:28:44.501Z,18.16
2022-09-06T08:29:44.439Z,18.14
2022-09-06T08:30:44.442Z,18.11
2022-09-06T08:31:44.486Z,18.17
2022-09-06T08:32:44.457Z,18.27
2022-09-06T08:33:44.429Z,18.32
2022-09-06T08:34:44.386Z,18.38
2022-09-06T08:35:44.382Z,18.43
2022-09-06T08:36:44.349Z,18.49
2022-09-06T08:37:44.349Z,18.62
2022-09-06T08:38:44.340Z,18.82
2022-09-06T08:39:44.378Z,19.00
2022-09-06T08:40:44.306Z,19.11
2022-09-06T08:41:44.311Z,19.18
2022-09-06T08:42:44.302Z,19.23
2022-09-06T08:43:44.618Z,19.32
2022-09-06T08:44:59.750Z,19.37
2022-09-06T08:45:44.316Z,19.29
2022-09-06T08:46:44.297Z,19.14
2022-09-06T08:47:44.254Z,19.01
2022-09-06T08:48:44.210Z,18.93
2022-09-06T08:49:44.179Z,18.90
2022-09-06T08:50:44.189Z,18.95
2022-09-06T08:51:44.160Z,19.07
2022-09-06T08:52:54.484Z,19.22
2022-09-06T08:53:44.147Z,19.44
2022-09-06T08:54:44.133Z,19.76
2022-09-06T08:55:44.118Z,20.08
2022-09-06T08:56:44.117Z,20.32
2022-09-06T08:57:44.105Z,20.41
2022-09-06T08:58:44.200Z,20.38
2022-09-06T08:59:44.183Z,20.41
2022-09-06T09:00:44.143Z,20.51
2022-09-06T09:01:44.125Z,20.48
2022-09-06T09:02:44.065Z,20.42
2022-09-06T09:03:44.046Z,20.45
2022-09-06T09:04:44.372Z,20.47
2022-09-06T09:05:44.100Z,20.44
2022-09-06T09:06:43.982Z,20.44
2022-09-06T09:07:43.954Z,20.55
2022-09-06T09:08:43.943Z,20.74
2022-09-06T09:09:43.930Z,20.94
2022-09-06T09:10:43.913Z,21.15
2022-09-06T09:11:43.934Z,21.16
2022-09-06T09:12:43.894Z,20.96
2022-09-06T09:13:43.882Z,20.72
2022-09-06T09:14:43.867Z,20.47
2022-09-06T09:15:43.850Z,20.27
2022-09-06T09:16:43.911Z,20.02
2022-09-06T09:17:43.844Z,19.81
2022-09-06T09:18:43.810Z,19.73
2022-09-06T09:19:43.775Z,19.71
2022-09-06T09:20:43.834Z,19.70
2022-09-06T09:21:43.774Z,19.69
2022-09-06T09:22:43.802Z,19.70
2022-09-06T09:23:43.725Z,19.74
2022-09-06T09:24:43.745Z,19.78
2022-09-06T09:25:43.701Z,19.82
2022-09-06T09:26:43.736Z,19.88
2022-09-06T09:27:43.674Z,19.98
2022-09-06T09:28:43.721Z,20.06
2022-09-06T09:30:49.534Z,20.01
2022-09-06T09:31:43.732Z,20.01
2022-09-06T09:32:43.646Z,20.00
2022-09-06T09:33:43.620Z,19.98
2022-09-06T09:34:43.622Z,19.99
2022-09-06T09:35:43.634Z,20.03
2022-09-06T09:37:48.695Z,20.10
2022-09-06T09:38:43.562Z,20.16
2022-09-06T09:39:43.562Z,20.22
2022-09-06T09:40:43.528Z,20.28
2022-09-06T09:41:43.510Z,20.32
2022-09-06T09:42:43.515Z,20.29
2022-09-06T09:43:43.473Z,20.26
2022-09-06T09:44:43.539Z,20.24
2022-09-06T09:45:43.491Z,20.24
2022-09-06T09:46:43.497Z,20.28
2022-09-06T09:47:43.505Z,20.32
2022-09-06T09:48:43.485Z,20.32
2022-09-06T09:49:43.391Z,20.34
2022-09-06T09:50:43.371Z,20.35
2022-09-06T09:51:43.370Z,20.34
2022-09-06T09:52:43.410Z,20.29
2022-09-06T09:53:43.363Z,20.13
2022-09-06T09:54:43.360Z,20.01
2022-09-06T09:55:43.320Z,19.97
2022-09-06T09:56:43.314Z,20.01
2022-09-06T09:57:43.301Z,20.10
2022-09-06T09:58:43.288Z,20.21
2022-09-06T09:59:43.259Z,20.31
2022-09-06T10:00:43.417Z,20.40
2022-09-06T10:01:43.237Z,20.48
2022-09-06T10:02:43.222Z,20.53
2022-09-06T10:04:43.722Z,20.49
2022-09-06T10:05:45.905Z,20.43
2022-09-06T10:07:43.145Z,20.44
2022-09-06T10:08:43.149Z,20.44
2022-09-06T10:09:43.161Z,20.36
2022-09-06T10:10:43.122Z,20.27
2022-09-06T10:11:43.106Z,20.22
2022-09-06T10:12:43.117Z,20.26
2022-09-06T10:13:43.073Z,20.38
2022-09-06T10:14:43.093Z,20.41
2022-09-06T10:15:43.130Z,20.39
2022-09-06T10:16:43.047Z,20.43
2022-09-06T10:17:43.022Z,20.50
2022-09-06T10:18:43.039Z,20.53
2022-09-06T10:19:43.023Z,20.47
2022-09-06T10:20:43.015Z,20.40
2022-09-06T10:21:42.973Z,20.37
2022-09-06T10:22:42.985Z,20.37
2022-09-06T10:24:42.954Z,20.50
2022-09-06T10:25:44.986Z,20.45
2022-09-06T10:26:42.945Z,20.37
2022-09-06T10:27:55.664Z,20.36
2022-09-06T10:28:42.902Z,20.39
2022-09-06T10:29:42.854Z,20.41
2022-09-06T10:30:42.883Z,20.40
2022-09-06T10:31:42.882Z,20.35
2022-09-06T10:32:42.901Z,20.28
2022-09-06T10:33:42.826Z,20.24
2022-09-06T10:34:42.810Z,20.24
2022-09-06T10:35:42.807Z,20.25
2022-09-06T10:36:42.779Z,20.24
2022-09-06T10:37:42.762Z,20.20
2022-09-06T10:38:42.765Z,20.13
2022-09-06T10:39:42.805Z,20.08
2022-09-06T10:40:42.728Z,20.06
2022-09-06T10:41:42.707Z,20.05
2022-09-06T10:42:42.702Z,20.05
2022-09-06T10:43:42.706Z,20.08
2022-09-06T10:44:42.672Z,20.12
2022-09-06T10:45:42.675Z,20.20
2022-09-06T10:46:42.666Z,20.29
2022-09-06T10:47:42.638Z,20.37
2022-09-06T10:48:42.649Z,20.43
2022-09-06T10:49:42.585Z,20.47
2022-09-06T10:50:42.595Z,20.48
2022-09-06T10:51:42.590Z,20.50
2022-09-06T10:52:42.565Z,20.56
2022-09-06T10:53:42.533Z,20.62
2022-09-06T10:54:42.538Z,20.73
2022-09-06T10:55:46.221Z,20.89
2022-09-06T10:56:42.510Z,21.09
2022-09-06T10:59:42.490Z,21.49
2022-09-06T11:00:42.461Z,21.54
2022-09-06T11:01:42.537Z,21.56
2022-09-06T11:02:42.680Z,21.63
2022-09-06T11:04:00.362Z,21.77
2022-09-06T11:05:42.427Z,22.08
2022-09-06T11:06:42.364Z,22.27
2022-09-06T11:07:42.760Z,22.41
2022-09-06T11:09:42.334Z,22.30
2022-09-06T11:10:42.375Z,22.29
2022-09-06T11:11:42.355Z,22.23
2022-09-06T11:12:42.290Z,22.09
2022-09-06T11:13:42.286Z,21.87
2022-09-06T11:14:42.289Z,21.73
2022-09-06T11:15:42.282Z,21.79
2022-09-06T11:16:42.253Z,21.95
2022-09-06T11:17:42.247Z,22.20
2022-09-06T11:18:42.229Z,22.53
2022-09-06T11:19:42.226Z,22.98
2022-09-06T11:20:42.185Z,23.49
2022-09-06T11:21:42.179Z,23.83
2022-09-06T11:22:42.156Z,24.03
2022-09-06T11:23:42.146Z,24.12
2022-09-06T11:24:42.181Z,24.08
2022-09-06T11:25:42.129Z,23.93
2022-09-06T11:26:42.119Z,23.75
2022-09-06T11:27:42.112Z,23.52
2022-09-06T11:28:42.096Z,23.31
2022-09-06T11:29:42.089Z,23.13
2022-09-06T11:30:42.129Z,22.94
2022-09-06T11:32:42.032Z,22.70
2022-09-06T11:33:42.023Z,22.69
2022-09-06T11:34:42.007Z,22.68
2022-09-06T11:35:42.010Z,22.58
2022-09-06T11:36:41.998Z,22.43
2022-09-06T11:37:42.017Z,22.26
2022-09-06T11:38:41.949Z,22.08
2022-09-06T11:40:41.981Z,21.83
2022-09-06T11:41:41.931Z,21.79
2022-09-06T11:42:41.952Z,21.77
2022-09-06T11:43:41.935Z,21.72
2022-09-06T11:44:41.936Z,21.68
2022-09-06T11:45:41.884Z,21.64
2022-09-06T11:46:41.885Z,21.59
2022-09-06T11:47:41.848Z,21.56
2022-09-06T11:48:41.828Z,21.52
2022-09-06T11:49:41.853Z,21.45
2022-09-06T11:50:41.807Z,21.42
2022-09-06T11:51:41.808Z,21.43
2022-09-06T11:52:41.772Z,21.43
2022-09-06T11:53:41.788Z,21.41
2022-09-06T11:54:41.734Z,21.40
2022-09-06T11:55:41.746Z,21.42
2022-09-06T11:56:41.726Z,21.46
2022-09-06T11:57:41.903Z,21.48
2022-09-06T11:58:41.691Z,21.48
2022-09-06T11:59:41.684Z,21.47
2022-09-06T12:00:41.694Z,21.50
2022-09-06T12:01:41.645Z,21.56
2022-09-06T12:02:41.754Z,21.62
2022-09-06T12:04:41.612Z,21.76
2022-09-06T12:05:41.633Z,21.86
2022-09-06T12:06:41.580Z,22.00
2022-09-06T12:07:41.591Z,22.15
2022-09-06T12:08:41.599Z,22.21
2022-09-06T12:09:41.559Z,22.23
2022-09-06T12:10:41.586Z,22.30
2022-09-06T12:11:41.509Z,22.44
2022-09-06T12:12:41.506Z,22.57
2022-09-06T12:13:41.505Z,22.70
2022-09-06T12:14:41.485Z,22.76
2022-09-06T12:15:41.542Z,22.76
2022-09-06T12:16:41.455Z,22.69
2022-09-06T12:17:41.473Z,22.54
2022-09-06T12:18:41.433Z,22.40
2022-09-06T12:19:44.292Z,22.35
2022-09-06T12:20:41.419Z,22.40
2022-09-06T12:21:41.413Z,22.43
2022-09-06T12:22:41.418Z,22.31
2022-09-06T12:23:41.539Z,22.15
2022-09-06T12:24:41.636Z,21.99
2022-09-06T12:25:41.343Z,21.78
2022-09-06T12:26:41.341Z,21.66
2022-09-06T12:27:41.338Z,21.67
2022-09-06T12:28:41.309Z,21.72
2022-09-06T12:29:41.396Z,21.74
2022-09-06T12:30:41.259Z,21.77
2022-09-06T12:31:41.366Z,21.81
2022-09-06T12:32:41.310Z,21.83
2022-09-06T12:33:41.245Z,21.85
2022-09-06T12:34:41.211Z,21.91
2022-09-06T12:35:56.875Z,21.94
2022-09-06T12:36:41.326Z,21.94
2022-09-06T12:37:41.192Z,21.93
2022-09-06T12:38:41.181Z,21.91
2022-09-06T12:39:41.220Z,21.93
2022-09-06T12:40:41.153Z,21.97
2022-09-06T12:41:43.509Z,22.06
2022-09-06T12:42:41.116Z,22.13
2022-09-06T12:43:41.130Z,22.19
2022-09-06T12:44:41.116Z,22.29
2022-09-06T12:45:41.239Z,22.40
2022-09-06T12:46:41.180Z,22.44
2022-09-06T12:47:41.107Z,22.51
2022-09-06T12:48:41.113Z,22.63
2022-09-06T12:49:41.067Z,22.76
2022-09-06T12:50:41.023Z,22.92
2022-09-06T12:51:41.058Z,23.15
2022-09-06T12:52:41.005Z,23.39
2022-09-06T12:53:41.014Z,23.55
2022-09-06T12:54:40.972Z,23.69
2022-09-06T12:55:41.072Z,23.77
2022-09-06T12:56:40.970Z,23.79
2022-09-06T12:57:40.961Z,23.73
2022-09-06T12:58:40.948Z,23.61
2022-09-06T12:59:40.956Z,23.53
2022-09-06T13:00:40.872Z,23.51
2022-09-06T13:01:41.053Z,23.55
2022-09-06T13:02:40.969Z,23.59
2022-09-06T13:03:40.865Z,23.60
2022-09-06T13:04:40.872Z,23.55
2022-09-06T13:05:40.849Z,23.64
2022-09-06T13:06:40.800Z,23.87
2022-09-06T13:07:40.809Z,24.16
2022-09-06T13:08:40.781Z,24.50
2022-09-06T13:09:40.782Z,24.69
2022-09-06T13:10:40.750Z,24.75
2022-09-06T13:11:40.878Z,24.75
2022-09-06T13:12:40.735Z,24.63
2022-09-06T13:13:40.755Z,24.36
2022-09-06T13:14:40.712Z,24.05
2022-09-06T13:15:40.739Z,23.75
2022-09-06T13:16:40.681Z,23.49